This is the latest recevied weather packets stored in our database for station/object DC4AT. If no packets are shown the sender has not sent any weather packets the latest 1 day(s).
| Time | Temp. | Humidity | Pressure | Rain* | Wind** | Luminosity | Snow |
|---|---|---|---|---|---|---|---|
| 1777984413 | 17.78° C | 76% | 1008.4 hPa | 0 mm | 1.79 m/s, 331° | 555 W/m² | - |
| 1777983813 | 17.78° C | 74% | 1008.4 hPa | 0 mm | 1.34 m/s, 350° | 359 W/m² | - |
| 1777983213 | 17.22° C | 75% | 1008.5 hPa | 0 mm | 1.79 m/s, 319° | 476 W/m² | - |
| 1777982613 | 17.22° C | 76% | 1008.6 hPa | 0 mm | 1.34 m/s, 292° | 313 W/m² | - |
| 1777982013 | 17.22° C | 77% | 1008.7 hPa | 0 mm | 1.79 m/s, 326° | 308 W/m² | - |
| 1777981413 | 17.22° C | 77% | 1008.6 hPa | 0 mm | 1.34 m/s, 319° | 624 W/m² | - |
| 1777980813 | 17.22° C | 80% | 1008.8 hPa | 0 mm | 1.34 m/s, 315° | 413 W/m² | - |
| 1777980213 | 16.67° C | 78% | 1008.9 hPa | 0 mm | 1.79 m/s, 336° | 350 W/m² | - |
| 1777979613 | 16.67° C | 78% | 1008.9 hPa | 0 mm | 1.34 m/s, 316° | 390 W/m² | - |
| 1777979013 | 16.67° C | 80% | 1009 hPa | 0 mm | 1.34 m/s, 338° | 413 W/m² | - |
| 1777978413 | 16.11° C | 80% | 1009.1 hPa | 0 mm | 1.34 m/s, 315° | 429 W/m² | - |
| 1777977813 | 16.11° C | 81% | 1009.2 hPa | 0 mm | 0.89 m/s, 323° | 457 W/m² | - |
| 1777977213 | 15.56° C | 84% | 1009.3 hPa | 0 mm | 0.89 m/s, 325° | 487 W/m² | - |
| 1777976613 | 15.56° C | 85% | 1009.5 hPa | 0 mm | 0.89 m/s, 321° | 413 W/m² | - |
| 1777976013 | 15.56° C | 85% | 1009.5 hPa | 0 mm | 0 m/s | 308 W/m² | - |
| 1777975413 | 15° C | 85% | 1009.6 hPa | 0 mm | 0.45 m/s, 290° | 271 W/m² | - |
| 1777974813 | 15° C | 84% | 1009.6 hPa | 0 mm | 0.45 m/s, 284° | 258 W/m² | - |
| 1777974213 | 14.44° C | 83% | 1009.5 hPa | 0 mm | 0 m/s | 216 W/m² | - |
| 1777973613 | 14.44° C | 82% | 1009.6 hPa | 0 mm | 0 m/s | 236 W/m² | - |
| 1777973013 | 14.44° C | 81% | 1009.7 hPa | 0 mm | 0.89 m/s, 281° | 234 W/m² | - |
| 1777972413 | 14.44° C | 80% | 1009.7 hPa | 0 mm | 0 m/s | 214 W/m² | - |
| 1777971813 | 13.89° C | 79% | 1009.7 hPa | 0 mm | 0 m/s | 230 W/m² | - |
| 1777971214 | 13.89° C | 79% | 1009.7 hPa | 0 mm | 0 m/s | 195 W/m² | - |
| 1777970614 | 13.89° C | 79% | 1009.7 hPa | 0 mm | 0 m/s | 142 W/m² | - |
| 1777970014 | 13.89° C | 78% | 1009.6 hPa | 0 mm | 0 m/s | 156 W/m² | - |
* Rain latest hour (hover to see other rain measurements)
** Current wind speed in m/s (hover to see current wind gust speed)